sensor_id;sensor_type;location;lat;lon;timestamp;temperature;humidity
65559;DHT22;52203;51.998;5.140;2022-07-10T00:01:23;8.97;118.99
65559;DHT22;52203;51.998;5.140;2022-07-10T00:03:49;8.92;118.99
65559;DHT22;52203;51.998;5.140;2022-07-10T00:06:15;8.85;118.99
65559;DHT22;52203;51.998;5.140;2022-07-10T00:08:41;8.79;118.99
65559;DHT22;52203;51.998;5.140;2022-07-10T00:11:08;8.73;118.99
65559;DHT22;52203;51.998;5.140;2022-07-10T00:13:34;8.71;118.99
65559;DHT22;52203;51.998;5.140;2022-07-10T00:16:00;8.64;118.99
65559;DHT22;52203;51.998;5.140;2022-07-10T00:18:28;8.61;118.99
65559;DHT22;52203;51.998;5.140;2022-07-10T00:20:53;8.57;118.99
65559;DHT22;52203;51.998;5.140;2022-07-10T00:23:19;8.53;118.99
65559;DHT22;52203;51.998;5.140;2022-07-10T00:25:44;8.38;118.99
65559;DHT22;52203;51.998;5.140;2022-07-10T00:28:10;8.31;118.99
65559;DHT22;52203;51.998;5.140;2022-07-10T00:30:36;8.23;118.99
65559;DHT22;52203;51.998;5.140;2022-07-10T00:33:03;8.19;118.99
65559;DHT22;52203;51.998;5.140;2022-07-10T00:35:28;8.16;118.99
65559;DHT22;52203;51.998;5.140;2022-07-10T00:37:54;8.15;118.99
65559;DHT22;52203;51.998;5.140;2022-07-10T00:40:20;8.09;118.99
65559;DHT22;52203;51.998;5.140;2022-07-10T00:42:45;8.05;118.99
65559;DHT22;52203;51.998;5.140;2022-07-10T00:45:11;8.09;118.99
65559;DHT22;52203;51.998;5.140;2022-07-10T00:47:37;8.06;118.99
65559;DHT22;52203;51.998;5.140;2022-07-10T00:50:03;8.05;118.99
65559;DHT22;52203;51.998;5.140;2022-07-10T00:52:29;8.05;118.99
65559;DHT22;52203;51.998;5.140;2022-07-10T00:54:56;8.00;118.99
65559;DHT22;52203;51.998;5.140;2022-07-10T00:57:23;7.99;118.99
65559;DHT22;52203;51.998;5.140;2022-07-10T00:59:49;7.99;118.99
65559;DHT22;52203;51.998;5.140;2022-07-10T01:02:15;7.94;118.99
65559;DHT22;52203;51.998;5.140;2022-07-10T01:04:41;7.96;118.99
65559;DHT22;52203;51.998;5.140;2022-07-10T01:07:07;7.89;118.99
65559;DHT22;52203;51.998;5.140;2022-07-10T01:09:33;7.87;118.99
65559;DHT22;52203;51.998;5.140;2022-07-10T01:12:02;7.86;118.99
65559;DHT22;52203;51.998;5.140;2022-07-10T01:14:29;7.85;118.99
65559;DHT22;52203;51.998;5.140;2022-07-10T01:16:58;7.83;118.99
65559;DHT22;52203;51.998;5.140;2022-07-10T01:19:24;7.82;118.99
65559;DHT22;52203;51.998;5.140;2022-07-10T01:21:49;7.81;118.99
65559;DHT22;52203;51.998;5.140;2022-07-10T01:24:15;7.74;118.99
65559;DHT22;52203;51.998;5.140;2022-07-10T01:26:40;7.76;118.99
65559;DHT22;52203;51.998;5.140;2022-07-10T01:29:10;7.79;118.99
65559;DHT22;52203;51.998;5.140;2022-07-10T01:31:37;7.79;118.99
65559;DHT22;52203;51.998;5.140;2022-07-10T01:34:05;7.81;118.99
65559;DHT22;52203;51.998;5.140;2022-07-10T01:36:31;7.77;118.99
65559;DHT22;52203;51.998;5.140;2022-07-10T01:38:58;7.74;118.99
65559;DHT22;52203;51.998;5.140;2022-07-10T01:41:24;7.75;118.99
65559;DHT22;52203;51.998;5.140;2022-07-10T01:43:50;7.73;118.99
65559;DHT22;52203;51.998;5.140;2022-07-10T01:46:16;7.75;118.99
65559;DHT22;52203;51.998;5.140;2022-07-10T01:48:42;7.77;118.99
65559;DHT22;52203;51.998;5.140;2022-07-10T01:51:09;7.81;118.99
65559;DHT22;52203;51.998;5.140;2022-07-10T01:53:35;7.86;118.99
65559;DHT22;52203;51.998;5.140;2022-07-10T01:56:04;7.94;118.99
65559;DHT22;52203;51.998;5.140;2022-07-10T01:58:30;8.01;118.99
65559;DHT22;52203;51.998;5.140;2022-07-10T02:00:55;8.08;118.99
65559;DHT22;52203;51.998;5.140;2022-07-10T02:03:21;8.14;118.99
65559;DHT22;52203;51.998;5.140;2022-07-10T02:06:05;8.20;118.99
65559;DHT22;52203;51.998;5.140;2022-07-10T02:08:30;8.17;118.99
65559;DHT22;52203;51.998;5.140;2022-07-10T02:10:56;8.15;118.99
65559;DHT22;52203;51.998;5.140;2022-07-10T02:13:21;8.09;118.99
65559;DHT22;52203;51.998;5.140;2022-07-10T02:15:47;8.05;118.99
65559;DHT22;52203;51.998;5.140;2022-07-10T02:18:13;8.00;118.99
65559;DHT22;52203;51.998;5.140;2022-07-10T02:20:38;7.97;118.99
65559;DHT22;52203;51.998;5.140;2022-07-10T02:23:04;7.91;118.99
65559;DHT22;52203;51.998;5.140;2022-07-10T02:25:31;7.84;118.99
65559;DHT22;52203;51.998;5.140;2022-07-10T02:27:57;7.75;118.99
65559;DHT22;52203;51.998;5.140;2022-07-10T02:30:22;7.69;118.99
65559;DHT22;52203;51.998;5.140;2022-07-10T02:32:48;7.62;118.99
65559;DHT22;52203;51.998;5.140;2022-07-10T02:35:13;7.59;118.99
65559;DHT22;52203;51.998;5.140;2022-07-10T02:37:39;7.57;118.99
65559;DHT22;52203;51.998;5.140;2022-07-10T02:40:04;7.53;118.99
65559;DHT22;52203;51.998;5.140;2022-07-10T02:42:30;7.52;118.99
65559;DHT22;52203;51.998;5.140;2022-07-10T02:44:56;7.47;118.99
65559;DHT22;52203;51.998;5.140;2022-07-10T02:47:21;7.50;118.99
65559;DHT22;52203;51.998;5.140;2022-07-10T02:49:46;7.53;118.99
65559;DHT22;52203;51.998;5.140;2022-07-10T02:52:12;7.52;118.99
65559;DHT22;52203;51.998;5.140;2022-07-10T02:54:37;7.48;118.99
65559;DHT22;52203;51.998;5.140;2022-07-10T02:57:03;7.54;118.99
65559;DHT22;52203;51.998;5.140;2022-07-10T02:59:29;7.55;118.99
65559;DHT22;52203;51.998;5.140;2022-07-10T03:01:54;7.59;118.99
65559;DHT22;52203;51.998;5.140;2022-07-10T03:04:20;7.63;118.99
65559;DHT22;52203;51.998;5.140;2022-07-10T03:06:45;7.74;118.99
65559;DHT22;52203;51.998;5.140;2022-07-10T03:09:11;7.83;118.99
65559;DHT22;52203;51.998;5.140;2022-07-10T03:11:36;7.88;118.99
65559;DHT22;52203;51.998;5.140;2022-07-10T03:14:02;7.91;118.99
65559;DHT22;52203;51.998;5.140;2022-07-10T03:16:28;7.93;118.99
65559;DHT22;52203;51.998;5.140;2022-07-10T03:18:53;7.97;118.99
65559;DHT22;52203;51.998;5.140;2022-07-10T03:21:18;8.02;118.99
65559;DHT22;52203;51.998;5.140;2022-07-10T03:23:44;8.05;118.99
65559;DHT22;52203;51.998;5.140;2022-07-10T03:26:09;8.08;118.99
65559;DHT22;52203;51.998;5.140;2022-07-10T03:28:35;8.12;118.99
65559;DHT22;52203;51.998;5.140;2022-07-10T03:31:01;8.13;118.99
65559;DHT22;52203;51.998;5.140;2022-07-10T03:33:27;8.17;118.99
65559;DHT22;52203;51.998;5.140;2022-07-10T03:35:53;8.16;118.99
65559;DHT22;52203;51.998;5.140;2022-07-10T03:38:19;8.19;118.99
65559;DHT22;52203;51.998;5.140;2022-07-10T03:40:44;8.21;118.99
65559;DHT22;52203;51.998;5.140;2022-07-10T03:43:14;8.24;118.99
65559;DHT22;52203;51.998;5.140;2022-07-10T03:45:40;8.27;118.99
65559;DHT22;52203;51.998;5.140;2022-07-10T03:48:05;8.30;118.99
65559;DHT22;52203;51.998;5.140;2022-07-10T03:50:32;8.29;118.99
65559;DHT22;52203;51.998;5.140;2022-07-10T03:52:58;8.32;118.99
65559;DHT22;52203;51.998;5.140;2022-07-10T03:55:23;8.33;118.99
65559;DHT22;52203;51.998;5.140;2022-07-10T03:57:49;8.34;118.99
65559;DHT22;52203;51.998;5.140;2022-07-10T04:00:25;8.36;118.99
65559;DHT22;52203;51.998;5.140;2022-07-10T04:02:59;8.39;118.99
65559;DHT22;52203;51.998;5.140;2022-07-10T04:05:25;8.39;118.99
65559;DHT22;52203;51.998;5.140;2022-07-10T04:07:51;8.42;118.99
65559;DHT22;52203;51.998;5.140;2022-07-10T04:10:17;8.43;118.99
65559;DHT22;52203;51.998;5.140;2022-07-10T04:12:43;8.44;118.99
65559;DHT22;52203;51.998;5.140;2022-07-10T04:15:09;8.47;118.99
65559;DHT22;52203;51.998;5.140;2022-07-10T04:17:34;8.51;118.99
65559;DHT22;52203;51.998;5.140;2022-07-10T04:20:00;8.56;118.99
65559;DHT22;52203;51.998;5.140;2022-07-10T04:22:28;8.58;118.99
65559;DHT22;52203;51.998;5.140;2022-07-10T04:24:54;8.63;118.99
65559;DHT22;52203;51.998;5.140;2022-07-10T04:27:20;8.66;118.99
65559;DHT22;52203;51.998;5.140;2022-07-10T04:29:46;8.68;118.99
65559;DHT22;52203;51.998;5.140;2022-07-10T04:32:12;8.72;118.99
65559;DHT22;52203;51.998;5.140;2022-07-10T04:34:37;8.77;118.99
65559;DHT22;52203;51.998;5.140;2022-07-10T04:37:04;8.80;118.99
65559;DHT22;52203;51.998;5.140;2022-07-10T04:39:30;8.87;118.99
65559;DHT22;52203;51.998;5.140;2022-07-10T04:41:55;8.90;118.99
65559;DHT22;52203;51.998;5.140;2022-07-10T04:44:20;8.95;118.99
65559;DHT22;52203;51.998;5.140;2022-07-10T04:46:46;8.98;118.99
65559;DHT22;52203;51.998;5.140;2022-07-10T04:49:13;9.01;118.99
65559;DHT22;52203;51.998;5.140;2022-07-10T04:51:38;9.05;118.99
65559;DHT22;52203;51.998;5.140;2022-07-10T04:54:04;9.06;118.99
65559;DHT22;52203;51.998;5.140;2022-07-10T04:56:29;9.10;118.99
65559;DHT22;52203;51.998;5.140;2022-07-10T04:58:55;9.10;118.99
65559;DHT22;52203;51.998;5.140;2022-07-10T05:01:20;9.11;118.99
65559;DHT22;52203;51.998;5.140;2022-07-10T05:03:46;9.14;118.99
65559;DHT22;52203;51.998;5.140;2022-07-10T05:06:12;9.14;118.99
65559;DHT22;52203;51.998;5.140;2022-07-10T05:08:37;9.18;118.99
65559;DHT22;52203;51.998;5.140;2022-07-10T05:11:02;9.23;118.99
65559;DHT22;52203;51.998;5.140;2022-07-10T05:13:28;9.25;118.99
65559;DHT22;52203;51.998;5.140;2022-07-10T05:15:53;9.29;118.99
65559;DHT22;52203;51.998;5.140;2022-07-10T05:18:19;9.31;118.99
65559;DHT22;52203;51.998;5.140;2022-07-10T05:20:44;9.31;118.99
65559;DHT22;52203;51.998;5.140;2022-07-10T05:23:13;9.33;118.99
65559;DHT22;52203;51.998;5.140;2022-07-10T05:25:38;9.36;118.99
65559;DHT22;52203;51.998;5.140;2022-07-10T05:28:04;9.38;118.99
65559;DHT22;52203;51.998;5.140;2022-07-10T05:30:31;9.38;118.99
65559;DHT22;52203;51.998;5.140;2022-07-10T05:32:56;9.38;118.99
65559;DHT22;52203;51.998;5.140;2022-07-10T05:35:22;9.40;118.99
65559;DHT22;52203;51.998;5.140;2022-07-10T05:37:48;9.44;118.99
65559;DHT22;52203;51.998;5.140;2022-07-10T05:40:13;9.46;118.99
65559;DHT22;52203;51.998;5.140;2022-07-10T05:42:39;9.47;118.99
65559;DHT22;52203;51.998;5.140;2022-07-10T05:45:05;9.47;118.99
65559;DHT22;52203;51.998;5.140;2022-07-10T05:47:31;9.53;118.99
65559;DHT22;52203;51.998;5.140;2022-07-10T05:49:58;9.54;118.99
65559;DHT22;52203;51.998;5.140;2022-07-10T05:52:24;9.56;118.99
65559;DHT22;52203;51.998;5.140;2022-07-10T05:54:49;9.61;118.99
65559;DHT22;52203;51.998;5.140;2022-07-10T05:57:16;9.68;118.99
65559;DHT22;52203;51.998;5.140;2022-07-10T05:59:41;9.77;118.99
65559;DHT22;52203;51.998;5.140;2022-07-10T06:02:07;9.83;118.99
65559;DHT22;52203;51.998;5.140;2022-07-10T06:04:33;9.86;118.99
65559;DHT22;52203;51.998;5.140;2022-07-10T06:06:59;9.94;118.99
65559;DHT22;52203;51.998;5.140;2022-07-10T06:09:24;10.04;118.99
65559;DHT22;52203;51.998;5.140;2022-07-10T06:11:50;10.07;118.99
65559;DHT22;52203;51.998;5.140;2022-07-10T06:14:15;10.09;118.99
65559;DHT22;52203;51.998;5.140;2022-07-10T06:16:41;10.13;118.99
65559;DHT22;52203;51.998;5.140;2022-07-10T06:19:06;10.18;118.99
65559;DHT22;52203;51.998;5.140;2022-07-10T06:21:32;10.23;118.99
65559;DHT22;52203;51.998;5.140;2022-07-10T06:23:57;10.27;118.99
65559;DHT22;52203;51.998;5.140;2022-07-10T06:26:24;10.27;118.99
65559;DHT22;52203;51.998;5.140;2022-07-10T06:29:02;10.23;118.99
65559;DHT22;52203;51.998;5.140;2022-07-10T06:31:28;10.26;118.99
65559;DHT22;52203;51.998;5.140;2022-07-10T06:33:54;10.42;118.99
65559;DHT22;52203;51.998;5.140;2022-07-10T06:36:20;10.53;118.99
65559;DHT22;52203;51.998;5.140;2022-07-10T06:38:46;10.59;118.99
65559;DHT22;52203;51.998;5.140;2022-07-10T06:41:11;10.68;118.99
65559;DHT22;52203;51.998;5.140;2022-07-10T06:43:37;10.65;118.99
65559;DHT22;52203;51.998;5.140;2022-07-10T06:46:03;10.69;118.99
65559;DHT22;52203;51.998;5.140;2022-07-10T06:48:29;10.78;118.99
65559;DHT22;52203;51.998;5.140;2022-07-10T06:50:55;10.78;118.99
65559;DHT22;52203;51.998;5.140;2022-07-10T06:53:21;10.72;118.99
65559;DHT22;52203;51.998;5.140;2022-07-10T06:55:53;10.64;118.99
65559;DHT22;52203;51.998;5.140;2022-07-10T06:58:19;10.69;118.99
65559;DHT22;52203;51.998;5.140;2022-07-10T07:00:44;10.67;118.99
65559;DHT22;52203;51.998;5.140;2022-07-10T07:03:10;10.69;118.99
65559;DHT22;52203;51.998;5.140;2022-07-10T07:05:35;10.80;118.99
65559;DHT22;52203;51.998;5.140;2022-07-10T07:08:01;10.80;118.99
65559;DHT22;52203;51.998;5.140;2022-07-10T07:10:26;10.88;118.99
65559;DHT22;52203;51.998;5.140;2022-07-10T07:12:52;10.81;118.99
65559;DHT22;52203;51.998;5.140;2022-07-10T07:15:18;10.85;118.99
65559;DHT22;52203;51.998;5.140;2022-07-10T07:17:45;10.86;118.99
65559;DHT22;52203;51.998;5.140;2022-07-10T07:20:33;10.85;118.99
65559;DHT22;52203;51.998;5.140;2022-07-10T07:23:17;11.01;118.99
65559;DHT22;52203;51.998;5.140;2022-07-10T07:25:43;11.05;118.99
65559;DHT22;52203;51.998;5.140;2022-07-10T07:28:12;11.16;118.99
65559;DHT22;52203;51.998;5.140;2022-07-10T07:30:37;11.26;118.99
65559;DHT22;52203;51.998;5.140;2022-07-10T07:33:03;11.45;118.99
65559;DHT22;52203;51.998;5.140;2022-07-10T07:35:28;11.60;118.99
65559;DHT22;52203;51.998;5.140;2022-07-10T07:37:55;11.70;118.99
65559;DHT22;52203;51.998;5.140;2022-07-10T07:40:22;11.54;118.99
65559;DHT22;52203;51.998;5.140;2022-07-10T07:42:52;11.73;118.99
65559;DHT22;52203;51.998;5.140;2022-07-10T07:45:22;11.71;118.99
65559;DHT22;52203;51.998;5.140;2022-07-10T07:50:17;11.76;118.99
65559;DHT22;52203;51.998;5.140;2022-07-10T07:52:44;11.84;118.99
65559;DHT22;52203;51.998;5.140;2022-07-10T07:55:10;11.94;118.99
65559;DHT22;52203;51.998;5.140;2022-07-10T07:57:36;11.78;118.99
65559;DHT22;52203;51.998;5.140;2022-07-10T08:00:04;11.70;118.99
65559;DHT22;52203;51.998;5.140;2022-07-10T08:02:30;11.68;118.99
65559;DHT22;52203;51.998;5.140;2022-07-10T08:04:56;11.70;118.99
65559;DHT22;52203;51.998;5.140;2022-07-10T08:07:21;11.54;118.99
65559;DHT22;52203;51.998;5.140;2022-07-10T08:09:47;11.49;118.99
65559;DHT22;52203;51.998;5.140;2022-07-10T08:12:14;11.52;118.99
65559;DHT22;52203;51.998;5.140;2022-07-10T08:14:39;11.46;118.99
65559;DHT22;52203;51.998;5.140;2022-07-10T08:17:05;11.59;118.99
65559;DHT22;52203;51.998;5.140;2022-07-10T08:19:30;11.62;118.99
65559;DHT22;52203;51.998;5.140;2022-07-10T08:21:56;11.61;118.99
65559;DHT22;52203;51.998;5.140;2022-07-10T08:24:21;11.83;118.99
65559;DHT22;52203;51.998;5.140;2022-07-10T08:26:47;11.75;118.99
65559;DHT22;52203;51.998;5.140;2022-07-10T08:29:12;11.94;118.99
65559;DHT22;52203;51.998;5.140;2022-07-10T08:31:38;12.06;118.99
65559;DHT22;52203;51.998;5.140;2022-07-10T08:34:05;12.25;118.99
65559;DHT22;52203;51.998;5.140;2022-07-10T08:36:30;12.17;118.99
65559;DHT22;52203;51.998;5.140;2022-07-10T08:38:56;12.16;118.99
65559;DHT22;52203;51.998;5.140;2022-07-10T08:41:25;12.37;118.99
65559;DHT22;52203;51.998;5.140;2022-07-10T08:43:50;12.37;118.99
65559;DHT22;52203;51.998;5.140;2022-07-10T08:46:17;12.47;118.99
65559;DHT22;52203;51.998;5.140;2022-07-10T08:48:47;12.82;118.99
65559;DHT22;52203;51.998;5.140;2022-07-10T08:51:18;12.86;118.99
65559;DHT22;52203;51.998;5.140;2022-07-10T08:53:47;12.86;118.99
65559;DHT22;52203;51.998;5.140;2022-07-10T08:56:15;12.84;118.99
65559;DHT22;52203;51.998;5.140;2022-07-10T08:58:41;12.72;118.99
65559;DHT22;52203;51.998;5.140;2022-07-10T09:01:07;12.76;118.99
65559;DHT22;52203;51.998;5.140;2022-07-10T09:03:33;12.95;118.99
65559;DHT22;52203;51.998;5.140;2022-07-10T09:05:59;12.93;118.99
65559;DHT22;52203;51.998;5.140;2022-07-10T09:08:26;12.65;118.99
65559;DHT22;52203;51.998;5.140;2022-07-10T09:11:18;12.74;118.99
65559;DHT22;52203;51.998;5.140;2022-07-10T09:13:55;12.95;118.99
65559;DHT22;52203;51.998;5.140;2022-07-10T09:16:30;13.02;118.99
65559;DHT22;52203;51.998;5.140;2022-07-10T09:21:39;12.84;118.99
65559;DHT22;52203;51.998;5.140;2022-07-10T09:24:07;12.82;118.99
65559;DHT22;52203;51.998;5.140;2022-07-10T09:26:35;13.22;118.99
65559;DHT22;52203;51.998;5.140;2022-07-10T09:31:52;13.81;118.99
65559;DHT22;52203;51.998;5.140;2022-07-10T09:34:40;13.74;118.99
65559;DHT22;52203;51.998;5.140;2022-07-10T09:37:33;13.82;118.99
65559;DHT22;52203;51.998;5.140;2022-07-10T09:40:01;14.15;118.99
65559;DHT22;52203;51.998;5.140;2022-07-10T09:42:42;14.38;118.99
65559;DHT22;52203;51.998;5.140;2022-07-10T09:50:28;14.25;118.99
65559;DHT22;52203;51.998;5.140;2022-07-10T09:52:59;14.18;118.99
65559;DHT22;52203;51.998;5.140;2022-07-10T09:55:28;13.94;118.99
65559;DHT22;52203;51.998;5.140;2022-07-10T09:57:59;13.83;118.99
65559;DHT22;52203;51.998;5.140;2022-07-10T10:00:33;13.95;118.99
65559;DHT22;52203;51.998;5.140;2022-07-10T10:03:00;13.78;118.99
65559;DHT22;52203;51.998;5.140;2022-07-10T10:08:04;13.86;118.99
65559;DHT22;52203;51.998;5.140;2022-07-10T10:10:32;14.12;118.99
65559;DHT22;52203;51.998;5.140;2022-07-10T10:13:03;13.94;118.99
65559;DHT22;52203;51.998;5.140;2022-07-10T10:15:30;13.91;118.99
65559;DHT22;52203;51.998;5.140;2022-07-10T10:17:58;13.88;118.99
65559;DHT22;52203;51.998;5.140;2022-07-10T10:20:24;14.08;118.99
65559;DHT22;52203;51.998;5.140;2022-07-10T10:23:09;13.79;118.99
65559;DHT22;52203;51.998;5.140;2022-07-10T10:25:35;14.11;118.99
65559;DHT22;52203;51.998;5.140;2022-07-10T10:28:03;14.03;118.99
65559;DHT22;52203;51.998;5.140;2022-07-10T10:30:30;13.90;118.99
65559;DHT22;52203;51.998;5.140;2022-07-10T10:32:56;14.30;118.99
65559;DHT22;52203;51.998;5.140;2022-07-10T10:35:44;14.80;118.99
65559;DHT22;52203;51.998;5.140;2022-07-10T10:38:13;15.07;118.99
65559;DHT22;52203;51.998;5.140;2022-07-10T10:40:39;15.00;118.99
65559;DHT22;52203;51.998;5.140;2022-07-10T10:43:22;14.87;118.99
65559;DHT22;52203;51.998;5.140;2022-07-10T10:45:49;14.95;118.99
65559;DHT22;52203;51.998;5.140;2022-07-10T10:48:16;15.08;118.99
65559;DHT22;52203;51.998;5.140;2022-07-10T10:53:16;14.65;118.99
65559;DHT22;52203;51.998;5.140;2022-07-10T10:58:45;14.59;118.99
65559;DHT22;52203;51.998;5.140;2022-07-10T11:06:42;14.40;118.99
65559;DHT22;52203;51.998;5.140;2022-07-10T11:09:28;14.81;118.99
65559;DHT22;52203;51.998;5.140;2022-07-10T11:14:27;15.01;118.99
65559;DHT22;52203;51.998;5.140;2022-07-10T11:16:55;15.31;118.99
65559;DHT22;52203;51.998;5.140;2022-07-10T11:19:22;15.25;118.99
65559;DHT22;52203;51.998;5.140;2022-07-10T11:21:54;14.72;118.99
65559;DHT22;52203;51.998;5.140;2022-07-10T11:26:58;15.33;118.99
65559;DHT22;52203;51.998;5.140;2022-07-10T11:29:27;15.90;118.99
65559;DHT22;52203;51.998;5.140;2022-07-10T11:31:54;16.46;118.99
65559;DHT22;52203;51.998;5.140;2022-07-10T11:34:21;16.37;118.99
65559;DHT22;52203;51.998;5.140;2022-07-10T11:36:47;16.51;118.99
65559;DHT22;52203;51.998;5.140;2022-07-10T11:39:13;16.43;118.99
65559;DHT22;52203;51.998;5.140;2022-07-10T11:41:43;15.77;118.99
65559;DHT22;52203;51.998;5.140;2022-07-10T11:44:17;16.04;118.99
65559;DHT22;52203;51.998;5.140;2022-07-10T11:46:44;16.34;118.99
65559;DHT22;52203;51.998;5.140;2022-07-10T11:49:10;16.11;118.99
65559;DHT22;52203;51.998;5.140;2022-07-10T11:51:39;15.80;118.99
65559;DHT22;52203;51.998;5.140;2022-07-10T11:54:06;15.80;118.99
65559;DHT22;52203;51.998;5.140;2022-07-10T11:56:34;15.95;118.99
65559;DHT22;52203;51.998;5.140;2022-07-10T12:01:31;15.18;118.99
65559;DHT22;52203;51.998;5.140;2022-07-10T12:04:02;15.41;118.99
65559;DHT22;52203;51.998;5.140;2022-07-10T12:06:29;15.47;118.99
65559;DHT22;52203;51.998;5.140;2022-07-10T12:08:55;15.33;118.99
65559;DHT22;52203;51.998;5.140;2022-07-10T12:11:22;15.36;118.99
65559;DHT22;52203;51.998;5.140;2022-07-10T12:13:49;15.14;118.99
65559;DHT22;52203;51.998;5.140;2022-07-10T12:16:16;15.67;118.99
65559;DHT22;52203;51.998;5.140;2022-07-10T12:18:42;16.45;118.99
65559;DHT22;52203;51.998;5.140;2022-07-10T12:21:12;17.03;118.99
65559;DHT22;52203;51.998;5.140;2022-07-10T12:23:38;17.32;118.99
65559;DHT22;52203;51.998;5.140;2022-07-10T12:26:09;17.51;118.99
65559;DHT22;52203;51.998;5.140;2022-07-10T12:28:52;17.56;118.99
65559;DHT22;52203;51.998;5.140;2022-07-10T12:31:25;17.90;118.99
65559;DHT22;52203;51.998;5.140;2022-07-10T12:34:03;17.38;118.99
65559;DHT22;52203;51.998;5.140;2022-07-10T12:36:48;16.71;118.99
65559;DHT22;52203;51.998;5.140;2022-07-10T12:39:16;16.48;118.99
65559;DHT22;52203;51.998;5.140;2022-07-10T12:47:07;16.10;118.99
65559;DHT22;52203;51.998;5.140;2022-07-10T12:50:03;16.29;118.99
65559;DHT22;52203;51.998;5.140;2022-07-10T12:52:36;16.01;118.99
65559;DHT22;52203;51.998;5.140;2022-07-10T12:55:19;16.16;118.99
65559;DHT22;52203;51.998;5.140;2022-07-10T12:57:57;16.12;118.99
65559;DHT22;52203;51.998;5.140;2022-07-10T13:00:24;16.04;118.99
65559;DHT22;52203;51.998;5.140;2022-07-10T13:03:00;15.99;118.99
65559;DHT22;52203;51.998;5.140;2022-07-10T13:05:38;16.12;118.99
65559;DHT22;52203;51.998;5.140;2022-07-10T13:08:19;16.11;118.99
65559;DHT22;52203;51.998;5.140;2022-07-10T13:10:56;16.34;118.99
65559;DHT22;52203;51.998;5.140;2022-07-10T13:13:23;16.31;118.99
65559;DHT22;52203;51.998;5.140;2022-07-10T13:15:49;16.73;118.99
65559;DHT22;52203;51.998;5.140;2022-07-10T13:18:17;17.21;118.99
65559;DHT22;52203;51.998;5.140;2022-07-10T13:20:46;17.08;118.99
65559;DHT22;52203;51.998;5.140;2022-07-10T13:23:12;16.70;118.99
65559;DHT22;52203;51.998;5.140;2022-07-10T13:25:38;16.17;118.99
65559;DHT22;52203;51.998;5.140;2022-07-10T13:28:05;15.54;118.99
65559;DHT22;52203;51.998;5.140;2022-07-10T13:30:32;15.90;118.99
65559;DHT22;52203;51.998;5.140;2022-07-10T13:32:58;15.65;118.99
65559;DHT22;52203;51.998;5.140;2022-07-10T13:35:23;15.47;118.99
65559;DHT22;52203;51.998;5.140;2022-07-10T13:37:49;15.21;118.99
65559;DHT22;52203;51.998;5.140;2022-07-10T13:40:14;15.23;118.99
65559;DHT22;52203;51.998;5.140;2022-07-10T13:42:40;15.17;118.99
65559;DHT22;52203;51.998;5.140;2022-07-10T13:45:06;15.40;118.99
65559;DHT22;52203;51.998;5.140;2022-07-10T13:47:33;15.75;118.99
65559;DHT22;52203;51.998;5.140;2022-07-10T13:49:59;15.73;118.99
65559;DHT22;52203;51.998;5.140;2022-07-10T13:52:24;15.75;118.99
65559;DHT22;52203;51.998;5.140;2022-07-10T13:54:50;16.13;118.99
65559;DHT22;52203;51.998;5.140;2022-07-10T13:57:16;16.06;118.99
65559;DHT22;52203;51.998;5.140;2022-07-10T13:59:41;16.10;118.99
65559;DHT22;52203;51.998;5.140;2022-07-10T14:02:07;16.39;118.99
65559;DHT22;52203;51.998;5.140;2022-07-10T14:04:32;16.04;118.99
65559;DHT22;52203;51.998;5.140;2022-07-10T14:06:58;16.16;118.99
65559;DHT22;52203;51.998;5.140;2022-07-10T14:09:23;16.00;118.99
65559;DHT22;52203;51.998;5.140;2022-07-10T14:11:50;16.04;118.99
65559;DHT22;52203;51.998;5.140;2022-07-10T14:14:15;15.83;118.99
65559;DHT22;52203;51.998;5.140;2022-07-10T14:16:41;16.08;118.99
65559;DHT22;52203;51.998;5.140;2022-07-10T14:19:08;15.89;118.99
65559;DHT22;52203;51.998;5.140;2022-07-10T14:21:34;15.99;118.99
65559;DHT22;52203;51.998;5.140;2022-07-10T14:24:02;15.68;118.99
65559;DHT22;52203;51.998;5.140;2022-07-10T14:26:27;16.02;118.99
65559;DHT22;52203;51.998;5.140;2022-07-10T14:28:53;16.28;118.99
65559;DHT22;52203;51.998;5.140;2022-07-10T14:31:20;16.45;118.99
65559;DHT22;52203;51.998;5.140;2022-07-10T14:33:46;16.12;118.99
65559;DHT22;52203;51.998;5.140;2022-07-10T14:36:11;15.90;118.99
65559;DHT22;52203;51.998;5.140;2022-07-10T14:38:37;16.18;118.99
65559;DHT22;52203;51.998;5.140;2022-07-10T14:41:02;16.41;118.99
65559;DHT22;52203;51.998;5.140;2022-07-10T14:43:29;16.22;118.99
65559;DHT22;52203;51.998;5.140;2022-07-10T14:45:59;15.86;118.99
65559;DHT22;52203;51.998;5.140;2022-07-10T14:48:25;15.72;118.99
65559;DHT22;52203;51.998;5.140;2022-07-10T14:50:51;15.87;118.99
65559;DHT22;52203;51.998;5.140;2022-07-10T14:53:16;15.84;118.99
65559;DHT22;52203;51.998;5.140;2022-07-10T14:55:42;15.81;118.99
65559;DHT22;52203;51.998;5.140;2022-07-10T14:58:07;16.05;118.99
65559;DHT22;52203;51.998;5.140;2022-07-10T15:00:33;16.30;118.99
65559;DHT22;52203;51.998;5.140;2022-07-10T15:02:59;16.58;118.99
65559;DHT22;52203;51.998;5.140;2022-07-10T15:05:25;16.54;118.99
65559;DHT22;52203;51.998;5.140;2022-07-10T15:07:50;16.87;118.99
65559;DHT22;52203;51.998;5.140;2022-07-10T15:10:16;17.02;118.99
65559;DHT22;52203;51.998;5.140;2022-07-10T15:12:43;17.11;118.99
65559;DHT22;52203;51.998;5.140;2022-07-10T15:15:09;17.06;118.99
65559;DHT22;52203;51.998;5.140;2022-07-10T15:17:36;17.00;118.99
65559;DHT22;52203;51.998;5.140;2022-07-10T15:20:03;16.76;118.99
65559;DHT22;52203;51.998;5.140;2022-07-10T15:22:28;17.26;118.99
65559;DHT22;52203;51.998;5.140;2022-07-10T15:24:54;16.96;118.99
65559;DHT22;52203;51.998;5.140;2022-07-10T15:27:19;16.43;118.99
65559;DHT22;52203;51.998;5.140;2022-07-10T15:29:45;15.89;118.99
65559;DHT22;52203;51.998;5.140;2022-07-10T15:32:10;15.93;118.99
65559;DHT22;52203;51.998;5.140;2022-07-10T15:34:37;16.03;118.99
65559;DHT22;52203;51.998;5.140;2022-07-10T15:37:03;16.10;118.99
65559;DHT22;52203;51.998;5.140;2022-07-10T15:39:28;16.28;118.99
65559;DHT22;52203;51.998;5.140;2022-07-10T15:41:54;16.59;118.99
65559;DHT22;52203;51.998;5.140;2022-07-10T15:44:20;16.94;118.99
65559;DHT22;52203;51.998;5.140;2022-07-10T15:46:45;16.78;118.99
65559;DHT22;52203;51.998;5.140;2022-07-10T15:49:11;16.49;118.99
65559;DHT22;52203;51.998;5.140;2022-07-10T15:51:37;16.76;118.99
65559;DHT22;52203;51.998;5.140;2022-07-10T15:54:03;16.72;118.99
65559;DHT22;52203;51.998;5.140;2022-07-10T15:56:28;16.57;118.99
65559;DHT22;52203;51.998;5.140;2022-07-10T15:58:54;16.91;118.99
65559;DHT22;52203;51.998;5.140;2022-07-10T16:01:19;17.30;118.99
65559;DHT22;52203;51.998;5.140;2022-07-10T16:03:45;17.37;118.99